Time;durP1;ratioP1;P1;durP2;ratioP2;P2;SDS_P1;SDS_P2;PMS_P1;PMS_P2;Temp;Humidity;BMP_temperature;BMP_pressure;BME280_temperature;BME280_humidity;BME280_pressure;Samples;Min_cycle;Max_cycle;Signal;HPM_P1;HPM_P2
2023/03/03 00:03:03;;;;;;;110.20;59.70;;;;;;;-0.97;80.31;99059.91;218829;1289;23857;-74
2023/03/03 00:08:05;;;;;;;114.00;61.00;;;;;;;-1.02;80.56;99060.42;218569;1289;22595;-74
2023/03/03 00:13:15;;;;;;;117.10;63.00;;;;;;;-1.06;80.49;99061.77;218829;1277;22541;-74
2023/03/03 00:18:34;;;;;;;122.30;66.00;;;;;;;-1.09;80.67;99056.57;218776;1292;24317;-75
2023/03/03 00:23:39;;;;;;;119.70;64.30;;;;;;;-1.10;80.90;99059.09;218764;1296;25357;-74
2023/03/03 00:28:51;;;;;;;129.50;66.90;;;;;;;-1.12;80.77;99054.75;218668;1292;22561;-73
2023/03/03 00:33:55;;;;;;;123.60;65.50;;;;;;;-1.17;80.65;99048.91;218988;1296;22559;-73
2023/03/03 00:39:36;;;;;;;121.90;63.20;;;;;;;-1.24;80.83;99051.26;218714;1285;25371;-76
2023/03/03 00:44:43;;;;;;;124.60;65.60;;;;;;;-1.31;80.74;99047.23;218881;1293;24252;-76
2023/03/03 00:50:05;;;;;;;117.90;65.30;;;;;;;-1.36;80.66;99049.88;218525;1296;22544;-74
2023/03/03 00:55:11;;;;;;;120.40;64.00;;;;;;;-1.42;80.93;99047.20;219072;1296;22649;-73
2023/03/03 01:00:14;;;;;;;122.30;66.40;;;;;;;-1.49;81.11;99050.27;218797;1295;25164;-74
2023/03/03 01:05:16;;;;;;;134.40;70.10;;;;;;;-1.54;81.32;99046.30;218774;1295;25398;-74
2023/03/03 01:10:18;;;;;;;135.30;70.00;;;;;;;-1.59;81.04;99049.05;218771;1296;22903;-74
2023/03/03 01:15:20;;;;;;;135.00;70.60;;;;;;;-1.64;81.48;99043.92;218635;1292;24217;-74
2023/03/03 01:20:22;;;;;;;138.20;70.70;;;;;;;-1.70;81.32;99038.80;218730;1296;28921;-73
2023/03/03 01:25:24;;;;;;;152.30;80.10;;;;;;;-1.75;81.60;99036.20;218603;1296;22694;-74
2023/03/03 01:30:27;;;;;;;148.40;78.60;;;;;;;-1.81;81.90;99028.42;218737;1296;24073;-74
2023/03/03 01:35:29;;;;;;;151.00;77.90;;;;;;;-1.85;81.80;99020.08;218536;1294;22672;-74
2023/03/03 01:40:31;;;;;;;139.20;73.80;;;;;;;-1.86;82.17;99020.03;218775;1296;26747;-74
2023/03/03 01:45:56;;;;;;;140.40;73.70;;;;;;;-1.89;82.16;99013.80;218745;1292;23554;-75
2023/03/03 01:51:08;;;;;;;113.50;59.20;;;;;;;-1.90;82.15;99006.48;218713;1296;26705;-74
2023/03/03 01:56:11;;;;;;;108.90;58.00;;;;;;;-1.93;82.25;99008.94;218748;1289;22554;-74
2023/03/03 02:01:19;;;;;;;107.20;59.30;;;;;;;-2.00;82.08;99000.95;218919;1290;22543;-73
2023/03/03 02:06:29;;;;;;;129.30;67.50;;;;;;;-2.11;82.18;99010.48;218805;1296;22631;-73
2023/03/03 02:11:33;;;;;;;;;;;;;;;-2.18;82.26;99010.09;218852;1294;25304;-75
2023/03/03 02:16:35;;;;;;;139.90;77.00;;;;;;;-2.22;82.50;99017.22;218858;1296;24822;-74
2023/03/03 02:21:37;;;;;;;151.70;81.40;;;;;;;-2.26;82.79;99027.70;218777;1289;22561;-74
2023/03/03 02:26:41;;;;;;;153.10;81.60;;;;;;;-2.26;82.66;99031.53;218673;1296;22642;-74
2023/03/03 02:31:44;;;;;;;147.40;81.30;;;;;;;-2.27;82.90;99030.52;218850;1293;22631;-74
2023/03/03 02:36:46;;;;;;;154.40;83.50;;;;;;;-2.28;83.00;99032.64;218756;1295;23339;-73
2023/03/03 02:42:22;;;;;;;152.90;83.50;;;;;;;-2.29;82.94;99035.15;218797;1293;22669;-73
2023/03/03 02:47:27;;;;;;;147.70;80.50;;;;;;;-2.30;83.05;99037.60;218859;1296;22689;-74
2023/03/03 02:52:29;;;;;;;153.10;85.50;;;;;;;-2.30;83.28;99034.34;218458;1296;22708;-73
2023/03/03 02:57:31;;;;;;;148.20;80.50;;;;;;;-2.31;83.41;99032.00;219016;1296;22726;-74
2023/03/03 03:02:33;;;;;;;153.30;79.20;;;;;;;-2.36;83.30;99028.36;218648;1296;22627;-73
2023/03/03 03:07:36;;;;;;;141.40;76.80;;;;;;;-2.37;83.39;99022.95;218969;1296;22547;-74
2023/03/03 03:12:39;;;;;;;139.30;76.50;;;;;;;-2.36;83.79;99014.02;218994;1296;24696;-73
2023/03/03 03:17:43;;;;;;;142.30;74.70;;;;;;;-2.33;83.89;99006.77;218574;1296;25708;-74
2023/03/03 03:22:46;;;;;;;140.20;74.40;;;;;;;-2.31;83.97;99007.52;218513;1296;24180;-74
2023/03/03 03:27:48;;;;;;;123.60;68.70;;;;;;;-2.31;83.53;99009.39;218832;1290;23646;-74
2023/03/03 03:32:50;;;;;;;123.90;67.20;;;;;;;-2.31;83.85;99011.45;218577;1296;22756;-74
2023/03/03 03:37:53;;;;;;;126.30;67.70;;;;;;;-2.32;83.99;99001.52;218952;1290;22594;-74
2023/03/03 03:42:55;;;;;;;104.10;57.00;;;;;;;-2.32;83.74;98999.82;218577;1293;22734;-74
2023/03/03 03:47:57;;;;;;;101.40;57.00;;;;;;;-2.38;84.06;98995.89;218687;1296;24361;-74
2023/03/03 03:53:00;;;;;;;114.20;61.00;;;;;;;-2.43;83.99;98991.41;218901;1290;22724;-74
2023/03/03 03:58:04;;;;;;;100.10;55.20;;;;;;;-2.47;83.90;98995.81;218986;1292;22582;-74
2023/03/03 04:03:07;;;;;;;114.60;60.40;;;;;;;-2.51;84.01;99005.00;218638;1296;24255;-73
2023/03/03 04:08:10;;;;;;;105.00;57.00;;;;;;;-2.53;83.98;99006.21;218795;1289;22566;-74
2023/03/03 04:13:12;;;;;;;104.10;57.30;;;;;;;-2.55;84.21;99017.71;218910;1293;24265;-74
2023/03/03 04:18:14;;;;;;;102.30;56.30;;;;;;;-2.58;84.22;99019.98;219064;1293;22549;-74
2023/03/03 04:23:19;;;;;;;105.60;54.40;;;;;;;-2.60;84.30;99015.63;218890;1290;22691;-74
2023/03/03 04:28:24;;;;;;;98.40;53.70;;;;;;;-2.63;84.16;99024.23;218584;1295;22645;-75
2023/03/03 04:33:26;;;;;;;95.20;50.80;;;;;;;-2.66;84.26;99011.37;218922;1289;25559;-74
2023/03/03 04:38:28;;;;;;;100.20;54.60;;;;;;;-2.70;84.27;99017.53;218624;1296;22627;-75
2023/03/03 04:43:30;;;;;;;98.20;56.60;;;;;;;-2.74;84.21;99030.17;218908;1296;22694;-75
2023/03/03 04:48:34;;;;;;;99.20;53.80;;;;;;;-2.76;84.57;99024.48;218780;1296;22675;-74
2023/03/03 04:53:37;;;;;;;105.60;56.00;;;;;;;-2.79;84.42;99021.19;218998;1296;23304;-74
2023/03/03 04:58:39;;;;;;;106.90;56.70;;;;;;;-2.81;84.39;99020.79;218906;1290;24787;-74
2023/03/03 05:03:42;;;;;;;102.20;56.00;;;;;;;-2.83;84.47;99023.71;218767;1289;25533;-74
2023/03/03 05:08:45;;;;;;;107.00;58.20;;;;;;;-2.86;84.77;99031.64;218902;1296;22749;-73
2023/03/03 05:13:47;;;;;;;131.40;57.70;;;;;;;-2.86;84.81;99042.15;218748;1296;22687;-73
2023/03/03 05:18:49;;;;;;;232.20;68.00;;;;;;;-2.86;84.57;99049.03;218915;1292;22807;-74
2023/03/03 05:23:51;;;;;;;123.00;56.80;;;;;;;-2.90;84.68;99043.96;218711;1293;25013;-75
2023/03/03 05:28:53;;;;;;;142.00;64.60;;;;;;;-2.91;85.13;99052.60;218861;1292;22598;-75
2023/03/03 05:33:55;;;;;;;135.00;66.00;;;;;;;-2.88;85.31;99055.19;218786;1289;22662;-74
2023/03/03 05:38:57;;;;;;;123.60;59.10;;;;;;;-2.85;85.54;99069.66;218571;1296;22608;-74
2023/03/03 05:43:59;;;;;;;140.80;59.90;;;;;;;-2.86;85.47;99077.64;218932;1295;22600;-74
2023/03/03 05:49:01;;;;;;;126.00;54.90;;;;;;;-2.86;85.58;99079.55;218683;1295;22724;-73
2023/03/03 05:54:03;;;;;;;100.90;47.50;;;;;;;-2.90;85.15;99090.61;218688;1290;22605;-74
2023/03/03 05:59:05;;;;;;;103.90;45.40;;;;;;;-2.95;85.31;99102.00;218902;1293;22688;-74
2023/03/03 06:04:07;;;;;;;101.40;47.00;;;;;;;-3.05;85.11;99102.61;218429;1295;22653;-74
2023/03/03 06:09:09;;;;;;;90.00;43.60;;;;;;;-3.09;85.35;99112.50;218836;1296;25624;-73
2023/03/03 06:14:11;;;;;;;85.00;39.90;;;;;;;-3.11;85.30;99126.40;218907;1280;23122;-74
2023/03/03 06:19:14;;;;;;;89.60;43.30;;;;;;;-3.08;85.33;99125.00;218738;1274;24152;-73
2023/03/03 06:24:16;;;;;;;88.10;41.70;;;;;;;-3.04;85.41;99118.92;218671;1295;22607;-73
2023/03/03 06:29:17;;;;;;;84.50;41.60;;;;;;;-3.02;85.43;99112.40;218832;1296;24286;-73
2023/03/03 06:34:20;;;;;;;80.80;38.50;;;;;;;-2.92;85.46;99130.55;218738;1295;22774;-73
2023/03/03 06:39:22;;;;;;;92.40;41.70;;;;;;;-2.86;85.19;99134.17;218601;1296;22706;-74
2023/03/03 06:44:24;;;;;;;90.70;36.50;;;;;;;-2.86;85.39;99142.77;218586;1293;22576;-74
2023/03/03 06:49:29;;;;;;;76.00;37.40;;;;;;;-2.86;85.35;99137.81;218852;1290;24748;-74
2023/03/03 06:54:31;;;;;;;97.60;41.50;;;;;;;-2.85;85.56;99141.83;219429;1289;22727;-74
2023/03/03 06:59:33;;;;;;;91.50;41.20;;;;;;;-2.83;85.27;99136.42;218735;1282;25769;-74
2023/03/03 07:04:35;;;;;;;98.60;37.20;;;;;;;-2.81;85.32;99135.95;218979;1276;22685;-74
2023/03/03 07:09:37;;;;;;;82.50;36.90;;;;;;;-2.76;85.24;99152.33;218876;1277;22575;-74
2023/03/03 07:14:46;;;;;;;69.50;32.10;;;;;;;-2.71;85.25;99138.77;219402;1276;26477;-73
2023/03/03 07:19:48;;;;;;;72.50;33.10;;;;;;;-2.62;85.44;99123.36;219260;1279;23165;-74
2023/03/03 07:24:53;;;;;;;81.60;33.90;;;;;;;-2.46;85.80;99124.90;219382;1274;29159;-73
2023/03/03 07:30:26;;;;;;;63.60;29.80;;;;;;;-2.33;85.46;99145.98;219338;1280;22616;-73
2023/03/03 07:35:38;;;;;;;64.80;26.40;;;;;;;-2.28;85.59;99159.48;218916;1286;22622;-73
2023/03/03 07:40:55;;;;;;;69.90;26.40;;;;;;;-2.25;85.57;99161.50;219062;1283;22568;-74
2023/03/03 07:46:10;;;;;;;61.40;25.20;;;;;;;-2.14;85.68;99140.21;219178;1289;25858;-74
2023/03/03 07:51:21;;;;;;;56.70;24.90;;;;;;;-1.91;85.67;99136.67;218806;1289;22669;-72
2023/03/03 07:56:34;;;;;;;57.00;24.30;;;;;;;-1.76;85.75;99161.38;218930;1286;25572;-74
2023/03/03 08:01:42;;;;;;;43.30;20.30;;;;;;;-1.69;85.51;99167.14;219047;1289;22553;-74
2023/03/03 08:06:47;;;;;;;55.90;26.00;;;;;;;-1.61;85.38;99157.96;218949;1280;23778;-74
2023/03/03 08:12:18;;;;;;;62.60;25.70;;;;;;;-1.53;85.25;99150.23;218892;1293;22668;-74
2023/03/03 08:17:23;;;;;;;62.80;28.00;;;;;;;-1.47;85.34;99150.27;218853;1283;25502;-73
2023/03/03 08:22:35;;;;;;;64.70;27.90;;;;;;;-1.38;85.36;99156.27;218876;1289;22630;-74
2023/03/03 08:27:36;;;;;;;74.50;27.40;;;;;;;-1.27;85.34;99144.63;219076;1276;24313;-74
2023/03/03 08:32:38;;;;;;;77.00;27.40;;;;;;;-1.15;85.80;99148.95;218805;1279;22559;-74
2023/03/03 08:37:41;;;;;;;57.30;24.90;;;;;;;-1.06;85.04;99165.49;218853;1283;22557;-73
2023/03/03 08:42:42;;;;;;;52.70;23.60;;;;;;;-1.02;85.40;99164.36;218722;1283;25397;-73
2023/03/03 08:47:44;;;;;;;65.10;27.00;;;;;;;-0.93;85.28;99174.46;218701;1279;23528;-73
2023/03/03 08:52:47;;;;;;;67.10;27.90;;;;;;;-0.86;85.51;99168.57;219113;1289;22675;-74
2023/03/03 08:57:49;;;;;;;67.10;29.00;;;;;;;-0.78;85.30;99167.16;219212;1279;25366;-74
2023/03/03 09:02:52;;;;;;;61.60;26.60;;;;;;;-0.68;85.71;99154.48;219100;1286;24503;-74
2023/03/03 09:07:54;;;;;;;74.10;31.70;;;;;;;-0.54;85.31;99144.14;218892;1276;22588;-73
2023/03/03 09:13:01;;;;;;;70.30;30.70;;;;;;;-0.42;85.69;99150.86;218951;1290;22743;-73
2023/03/03 09:18:18;;;;;;;64.30;29.80;;;;;;;-0.32;85.29;99155.38;218745;1290;22590;-74
2023/03/03 09:23:41;;;;;;;59.60;27.30;;;;;;;-0.21;85.34;99153.75;219117;1280;23820;-73
2023/03/03 09:28:43;;;;;;;53.90;24.50;;;;;;;-0.16;84.75;99155.98;218751;1289;22562;-73
2023/03/03 09:33:53;;;;;;;46.40;22.40;;;;;;;-0.14;84.81;99141.25;218666;1280;22571;-73
2023/03/03 09:38:56;;;;;;;;;;;;;;;-0.09;84.90;99136.22;219224;1280;22561;-73
2023/03/03 09:44:04;;;;;;;54.30;25.00;;;;;;;-0.04;84.78;99136.39;218656;1293;24294;-74
2023/03/03 09:49:56;;;;;;;48.60;22.70;;;;;;;0.00;84.71;99141.40;219037;1295;25383;-73
2023/03/03 09:55:26;;;;;;;45.90;21.40;;;;;;;0.07;84.49;99149.38;218792;1286;25406;-74
2023/03/03 10:00:40;;;;;;;45.70;22.70;;;;;;;0.12;84.33;99159.61;218802;1296;24468;-73
2023/03/03 10:05:57;;;;;;;46.30;22.00;;;;;;;0.11;84.42;99168.88;218934;1295;22652;-74
2023/03/03 10:11:40;;;;;;;50.80;22.90;;;;;;;0.11;84.37;99150.49;218876;1290;22586;-74
2023/03/03 10:16:52;;;;;;;48.90;22.80;;;;;;;0.20;84.65;99154.85;217109;1298;25337;-73
2023/03/03 10:22:04;;;;;;;47.10;22.10;;;;;;;0.26;84.08;99165.96;218479;1291;25474;-73
2023/03/03 10:27:53;;;;;;;56.90;23.90;;;;;;;0.29;84.16;99178.77;218891;1296;22609;-73
2023/03/03 10:33:04;;;;;;;50.20;22.20;;;;;;;0.30;84.26;99187.16;218939;1292;22630;-74
2023/03/03 10:38:18;;;;;;;45.20;21.00;;;;;;;0.30;84.10;99180.77;219102;1287;24400;-74
2023/03/03 10:43:35;;;;;;;45.10;21.60;;;;;;;0.32;84.14;99172.27;218848;1283;22603;-74
2023/03/03 10:49:28;;;;;;;40.10;20.10;;;;;;;0.32;83.80;99181.14;219013;1290;24228;-74
2023/03/03 10:54:55;;;;;;;42.70;19.10;;;;;;;0.30;83.75;99181.48;218824;1287;24306;-74
2023/03/03 11:00:19;;;;;;;47.70;21.40;;;;;;;0.24;83.77;99184.89;218625;1289;25442;-75
2023/03/03 11:05:33;;;;;;;48.30;21.80;;;;;;;0.20;83.98;99185.13;219013;1283;22641;-75
2023/03/03 11:10:57;;;;;;;47.60;23.10;;;;;;;0.23;84.02;99179.20;218785;1279;25392;-73
2023/03/03 11:16:20;;;;;;;39.10;20.60;;;;;;;0.26;83.64;99177.09;218912;1287;180911;-74
2023/03/03 11:21:33;;;;;;;38.10;19.20;;;;;;;0.28;83.64;99168.77;218851;1292;22693;-74
2023/03/03 11:26:50;;;;;;;40.80;21.20;;;;;;;0.29;83.55;99172.83;218746;1289;22548;-74
2023/03/03 11:31:59;;;;;;;38.50;19.10;;;;;;;0.27;83.35;99168.37;218904;1285;22555;-74
2023/03/03 11:37:07;;;;;;;43.00;20.80;;;;;;;0.30;83.54;99164.87;218587;1286;22550;-74
2023/03/03 11:42:28;;;;;;;42.10;21.20;;;;;;;0.33;83.68;99160.77;218883;1283;23920;-74
2023/03/03 11:47:55;;;;;;;40.60;20.80;;;;;;;0.40;83.63;99161.13;218750;1289;25319;-74
2023/03/03 11:53:26;;;;;;;41.60;21.50;;;;;;;0.47;83.64;99160.23;218978;1292;25299;-74
2023/03/03 11:58:39;;;;;;;49.80;25.20;;;;;;;0.57;83.31;99163.81;218814;1297;22548;-74
2023/03/03 12:03:52;;;;;;;46.60;24.00;;;;;;;0.67;83.36;99171.38;218671;1283;22719;-74
2023/03/03 12:09:16;;;;;;;46.70;23.40;;;;;;;0.72;83.33;99162.35;218823;1280;25552;-75
2023/03/03 12:14:56;;;;;;;45.30;24.20;;;;;;;0.77;82.84;99162.85;218680;1286;22549;-74
2023/03/03 12:20:24;;;;;;;48.40;24.20;;;;;;;0.81;82.94;99159.39;218744;1289;22664;-74
2023/03/03 12:25:41;;;;;;;46.20;23.20;;;;;;;0.92;82.89;99155.08;218778;1283;24240;-74
2023/03/03 12:31:05;;;;;;;49.10;24.20;;;;;;;1.01;82.96;99153.73;219018;1276;23335;-75
2023/03/03 12:36:20;;;;;;;47.50;23.80;;;;;;;1.04;82.81;99150.89;218952;1295;25453;-76
2023/03/03 12:41:35;;;;;;;52.00;26.60;;;;;;;1.01;82.48;99144.52;219063;1275;26404;-74
2023/03/03 12:47:01;;;;;;;49.30;25.60;;;;;;;0.99;82.62;99137.20;219060;1279;26413;-73
2023/03/03 12:52:27;;;;;;;42.60;23.50;;;;;;;1.00;82.35;99132.80;218711;1289;23250;-74
2023/03/03 12:57:50;;;;;;;40.70;21.60;;;;;;;1.11;82.73;99134.35;218905;1275;22604;-73
2023/03/03 13:03:05;;;;;;;42.50;22.20;;;;;;;1.19;82.44;99137.72;218653;1292;22659;-73
2023/03/03 13:08:10;;;;;;;41.70;21.20;;;;;;;1.16;82.01;99127.79;218509;1295;25560;-75
2023/03/03 13:13:36;;;;;;;41.80;22.20;;;;;;;1.10;81.77;99129.45;218898;1276;25508;-75
2023/03/03 13:18:50;;;;;;;43.90;22.50;;;;;;;1.12;82.05;99133.31;219023;1283;22548;-74
2023/03/03 13:24:17;;;;;;;40.40;19.40;;;;;;;1.19;82.23;99128.73;219055;1276;25265;-74
2023/03/03 13:29:25;;;;;;;39.70;20.10;;;;;;;1.22;81.83;99131.91;218569;1285;24290;-74
2023/03/03 13:35:02;;;;;;;34.90;19.40;;;;;;;1.20;81.26;99134.35;218888;1293;22566;-74
2023/03/03 13:40:18;;;;;;;31.50;18.20;;;;;;;1.22;81.59;99125.89;218968;1289;22598;-75
2023/03/03 13:45:49;;;;;;;31.20;17.50;;;;;;;1.26;81.44;99129.05;218578;1292;22592;-74
2023/03/03 13:51:14;;;;;;;33.10;18.90;;;;;;;1.28;80.98;99123.98;218645;1289;22571;-75
2023/03/03 13:56:19;;;;;;;29.50;17.60;;;;;;;1.28;81.04;99125.19;218749;1295;24276;-75
2023/03/03 14:01:52;;;;;;;28.50;16.00;;;;;;;1.26;80.47;99124.19;218837;1286;23359;-73
2023/03/03 14:07:02;;;;;;;31.00;17.80;;;;;;;1.26;80.32;99117.95;218866;1295;25142;-74
2023/03/03 14:12:20;;;;;;;30.30;18.00;;;;;;;1.26;80.59;99118.45;218693;1289;24316;-74
2023/03/03 14:17:33;;;;;;;29.80;17.40;;;;;;;1.26;80.25;99121.75;218702;1289;22580;-74
2023/03/03 14:22:44;;;;;;;28.80;17.70;;;;;;;1.25;79.93;99117.98;218468;1293;22726;-75
2023/03/03 14:27:46;;;;;;;28.70;17.00;;;;;;;1.26;80.18;99118.44;218964;1289;22571;-74
2023/03/03 14:33:07;;;;;;;30.30;17.50;;;;;;;1.25;79.69;99110.55;218636;1286;22555;-73
2023/03/03 14:38:23;;;;;;;31.80;18.60;;;;;;;1.24;79.77;99101.45;218769;1289;23104;-73
2023/03/03 14:43:32;;;;;;;30.90;18.20;;;;;;;1.20;79.75;99100.84;219040;1282;22550;-74
2023/03/03 14:48:49;;;;;;;34.80;19.50;;;;;;;1.17;80.11;99103.75;219009;1283;22882;-74
2023/03/03 14:53:52;;;;;;;33.40;20.40;;;;;;;1.15;79.91;99108.41;218997;1288;22620;-75
2023/03/03 14:59:13;;;;;;;33.60;19.10;;;;;;;1.11;80.00;99102.42;218523;1290;22653;-76
2023/03/03 15:04:19;;;;;;;32.80;19.80;;;;;;;0.99;79.74;99112.38;219076;1292;24260;-74
2023/03/03 15:09:47;;;;;;;35.80;21.60;;;;;;;0.87;79.52;99117.02;218565;1297;26035;-75
2023/03/03 15:15:04;;;;;;;33.30;20.30;;;;;;;0.74;79.86;99105.90;218576;1297;22597;-75
2023/03/03 15:20:42;;;;;;;33.30;19.70;;;;;;;0.66;80.03;99097.67;218767;1295;22566;-75
2023/03/03 15:25:59;;;;;;;36.80;21.20;;;;;;;0.57;80.08;99091.23;218759;1292;22616;-75
2023/03/03 15:31:14;;;;;;;41.30;23.20;;;;;;;0.55;80.42;99089.13;218708;1295;22777;-74
2023/03/03 15:36:40;;;;;;;39.70;23.20;;;;;;;0.55;80.80;99092.27;218637;1295;22582;-75
2023/03/03 15:41:42;;;;;;;42.80;22.30;;;;;;;0.55;80.96;99092.77;218559;1297;22671;-75
2023/03/03 15:46:51;;;;;;;34.10;20.00;;;;;;;0.49;80.90;99092.86;218832;1295;22640;-75
2023/03/03 15:52:21;;;;;;;41.00;20.50;;;;;;;0.42;80.98;99095.20;218800;1293;22729;-74
2023/03/03 15:57:44;;;;;;;37.20;21.70;;;;;;;0.38;81.05;99089.09;218707;1295;24019;-74
2023/03/03 16:02:55;;;;;;;41.00;22.70;;;;;;;0.35;81.12;99087.02;218670;1289;24325;-75
2023/03/03 16:08:21;;;;;;;35.10;20.90;;;;;;;0.34;81.43;99085.52;218598;1297;24444;-76
2023/03/03 16:13:35;;;;;;;38.40;20.90;;;;;;;0.37;81.53;99098.47;218525;1292;22577;-75
2023/03/03 16:18:58;;;;;;;35.00;18.50;;;;;;;0.37;81.59;99098.54;218744;1297;23221;-75
2023/03/03 16:24:27;;;;;;;31.40;16.80;;;;;;;0.30;81.69;99099.20;218517;1294;22556;-74
2023/03/03 16:29:35;;;;;;;33.20;15.50;;;;;;;0.22;81.81;99099.27;218991;1297;23934;-74
2023/03/03 16:34:53;;;;;;;32.40;15.80;;;;;;;0.16;81.79;99105.27;218862;1297;24303;-75
2023/03/03 16:40:08;;;;;;;30.90;16.40;;;;;;;0.10;81.83;99105.90;218742;1296;22555;-75
2023/03/03 16:45:25;;;;;;;31.10;16.10;;;;;;;0.08;82.27;99109.15;218970;1295;22606;-74
2023/03/03 16:50:53;;;;;;;36.20;18.30;;;;;;;0.07;82.08;99109.29;218965;1276;23399;-74
2023/03/03 16:56:17;;;;;;;38.20;18.80;;;;;;;0.08;82.45;99103.81;218777;1297;22671;-75
2023/03/03 17:01:47;;;;;;;35.40;18.40;;;;;;;0.12;82.49;99104.02;218522;1295;22628;-74
2023/03/03 17:06:54;;;;;;;;;;;;;;;0.17;82.66;99108.51;218611;1297;25271;-75
2023/03/03 17:12:00;;;;;;;36.00;17.90;;;;;;;0.15;82.83;99108.62;218690;1296;22736;-75
2023/03/03 17:17:25;;;;;;;31.10;17.80;;;;;;;0.12;82.54;99113.92;218593;1293;22793;-74
2023/03/03 17:23:05;;;;;;;29.20;16.60;;;;;;;0.11;82.88;99117.12;219125;1297;24375;-75
2023/03/03 17:28:27;;;;;;;29.50;17.00;;;;;;;0.07;82.71;99123.83;218718;1297;22561;-75
2023/03/03 17:33:33;;;;;;;33.90;19.10;;;;;;;0.04;83.02;99124.83;218548;1293;22569;-74
2023/03/03 17:38:49;;;;;;;33.50;17.90;;;;;;;0.04;82.65;99126.60;218779;1296;23133;-74
2023/03/03 17:44:16;;;;;;;24.20;14.30;;;;;;;-0.01;82.63;99126.10;218741;1297;25677;-75
2023/03/03 17:49:57;;;;;;;23.00;13.60;;;;;;;-0.02;82.96;99123.79;218797;1296;22573;-74
2023/03/03 17:55:41;;;;;;;26.50;15.10;;;;;;;-0.03;82.81;99121.21;218607;1291;23407;-74
2023/03/03 18:00:59;;;;;;;101.40;57.10;;;;;;;-0.01;83.21;99122.17;218178;1297;22660;-74
2023/03/03 18:06:23;;;;;;;39.10;20.70;;;;;;;0.02;83.11;99119.96;218723;1292;24359;-74
2023/03/03 18:11:51;;;;;;;44.20;23.50;;;;;;;0.07;83.23;99121.38;218818;1290;22944;-75
2023/03/03 18:17:04;;;;;;;36.70;22.00;;;;;;;0.10;82.95;99120.59;218290;1297;25332;-75
2023/03/03 18:22:12;;;;;;;44.60;24.80;;;;;;;0.12;82.98;99117.41;218785;1279;25385;-75
2023/03/03 18:27:23;;;;;;;49.10;25.10;;;;;;;0.14;83.10;99128.25;218798;1297;23970;-76
2023/03/03 18:32:40;;;;;;;43.50;23.40;;;;;;;0.17;83.06;99130.96;218587;1296;25551;-75
2023/03/03 18:37:44;;;;;;;51.40;25.70;;;;;;;0.17;82.96;99130.11;218665;1293;25338;-75
2023/03/03 18:42:48;;;;;;;49.10;26.80;;;;;;;0.14;83.06;99122.42;218627;1297;26550;-74
2023/03/03 18:48:00;;;;;;;52.10;28.50;;;;;;;0.11;83.08;99120.38;218436;1292;22579;-74
2023/03/03 18:53:14;;;;;;;60.30;30.70;;;;;;;0.11;82.92;99114.81;218799;1295;22501;-75
2023/03/03 18:58:20;;;;;;;53.80;28.20;;;;;;;0.15;83.46;99109.52;218570;1289;22545;-74
2023/03/03 19:03:28;;;;;;;56.10;30.40;;;;;;;0.14;83.01;99108.38;218447;1296;22542;-74
2023/03/03 19:08:52;;;;;;;56.20;29.10;;;;;;;0.13;83.35;99103.75;218827;1294;22543;-74
2023/03/03 19:14:14;;;;;;;54.40;28.00;;;;;;;0.09;83.22;99100.29;218660;1297;22563;-74
2023/03/03 19:19:19;;;;;;;54.60;27.20;;;;;;;0.11;83.20;99101.87;218613;1294;24253;-75
2023/03/03 19:25:00;;;;;;;54.80;27.00;;;;;;;0.15;83.12;99106.57;218608;1295;22661;-75
2023/03/03 19:30:25;;;;;;;56.10;28.60;;;;;;;0.19;83.52;99108.52;218903;1297;22615;-74
2023/03/03 19:35:36;;;;;;;54.50;27.60;;;;;;;0.14;83.25;99110.12;218901;1293;22595;-74
2023/03/03 19:40:57;;;;;;;47.40;25.70;;;;;;;0.11;83.33;99106.90;218627;1292;24340;-74
2023/03/03 19:46:11;;;;;;;51.90;24.50;;;;;;;0.07;83.14;99102.54;218398;1292;24259;-75
2023/03/03 19:51:23;;;;;;;44.40;23.00;;;;;;;0.04;83.37;99101.48;218666;1297;22589;-74
2023/03/03 19:56:46;;;;;;;51.20;24.70;;;;;;;0.05;83.46;99110.62;218641;1294;22560;-75
2023/03/03 20:02:10;;;;;;;52.40;25.60;;;;;;;0.04;83.10;99111.02;218926;1292;22545;-75
2023/03/03 20:07:58;;;;;;;52.40;24.60;;;;;;;0.04;83.42;99105.97;218830;1278;25450;-75
2023/03/03 20:13:23;;;;;;;52.80;24.70;;;;;;;0.06;83.66;99095.96;218170;1297;23761;-75
2023/03/03 20:18:40;;;;;;;53.80;26.10;;;;;;;0.09;83.26;99100.46;218755;1292;24313;-75
2023/03/03 20:24:05;;;;;;;50.80;25.10;;;;;;;0.10;83.52;99098.80;218664;1289;23307;-74
2023/03/03 20:29:22;;;;;;;57.30;26.30;;;;;;;0.13;83.72;99106.23;218743;1282;25536;-74
2023/03/03 20:34:40;;;;;;;46.50;22.20;;;;;;;0.16;83.48;99107.15;218519;1297;22805;-74
2023/03/03 20:39:42;;;;;;;43.40;21.80;;;;;;;0.17;83.63;99105.71;218535;1295;22603;-74
2023/03/03 20:45:08;;;;;;;33.30;19.00;;;;;;;0.16;83.32;99108.05;218877;1293;24294;-75
2023/03/03 20:50:24;;;;;;;32.50;17.40;;;;;;;0.12;83.34;99107.84;218778;1297;22667;-75
2023/03/03 20:55:56;;;;;;;33.40;18.80;;;;;;;0.10;83.39;99102.12;218877;1297;22549;-77
2023/03/03 21:01:09;;;;;;;29.60;17.10;;;;;;;0.09;83.40;99092.27;218622;1295;22566;-74
2023/03/03 21:06:14;;;;;;;32.20;17.90;;;;;;;0.11;83.47;99081.39;218860;1294;22556;-74
2023/03/03 21:11:20;;;;;;;30.20;16.50;;;;;;;0.11;83.74;99072.75;218462;1297;22539;-75
2023/03/03 21:16:21;;;;;;;31.40;17.90;;;;;;;0.12;83.37;99077.15;218648;1297;25369;-74
2023/03/03 21:21:26;;;;;;;36.80;20.00;;;;;;;0.13;83.39;99076.92;218816;1297;22565;-75
2023/03/03 21:26:48;;;;;;;40.20;21.60;;;;;;;0.14;83.47;99071.15;218660;1296;22611;-74
2023/03/03 21:31:58;;;;;;;41.80;21.50;;;;;;;0.15;83.67;99059.10;218706;1297;23035;-74
2023/03/03 21:37:05;;;;;;;35.60;19.60;;;;;;;0.20;83.36;99052.49;218628;1296;22552;-74
2023/03/03 21:42:29;;;;;;;35.80;20.40;;;;;;;0.19;83.45;99056.91;218635;1296;22591;-74
2023/03/03 21:47:34;;;;;;;45.60;23.40;;;;;;;0.19;83.42;99061.25;218422;1294;22580;-74
2023/03/03 21:52:37;;;;;;;36.70;20.00;;;;;;;0.22;83.50;99054.75;218973;1297;23338;-75
2023/03/03 21:57:40;;;;;;;43.70;23.70;;;;;;;0.21;83.20;99043.27;218612;1297;22543;-74
2023/03/03 22:02:42;;;;;;;44.20;23.30;;;;;;;0.17;83.29;99036.77;218513;1297;24292;-76
2023/03/03 22:07:45;;;;;;;44.60;24.50;;;;;;;0.15;83.38;99030.20;218586;1293;23331;-75
2023/03/03 22:12:52;;;;;;;48.40;25.00;;;;;;;0.19;83.51;99023.27;218304;1297;23366;-74
2023/03/03 22:18:01;;;;;;;43.90;24.10;;;;;;;0.24;83.43;99013.56;218816;1297;25569;-75
2023/03/03 22:23:03;;;;;;;42.40;23.50;;;;;;;0.28;83.66;99008.20;218907;1297;22640;-75
2023/03/03 22:28:06;;;;;;;49.50;26.20;;;;;;;0.31;83.34;98997.95;218564;1297;22679;-74
2023/03/03 22:33:09;;;;;;;41.60;22.40;;;;;;;0.28;83.33;98993.16;218701;1293;22577;-75
2023/03/03 22:38:11;;;;;;;47.00;26.10;;;;;;;0.26;83.05;98984.84;218444;1295;24314;-73
2023/03/03 22:43:20;;;;;;;44.20;23.60;;;;;;;0.26;83.67;98983.95;218328;1297;22546;-73
2023/03/03 22:48:25;;;;;;;47.00;25.10;;;;;;;0.28;83.51;98978.80;218154;1295;22631;-74
2023/03/03 22:53:31;;;;;;;46.50;25.00;;;;;;;0.24;83.18;98981.18;218528;1295;22549;-74
2023/03/03 22:58:33;;;;;;;44.60;24.30;;;;;;;0.20;83.19;98972.48;218576;1295;24288;-75
2023/03/03 23:03:36;;;;;;;43.40;24.30;;;;;;;0.19;83.36;98960.11;218866;1297;22578;-75
2023/03/03 23:08:38;;;;;;;43.40;23.40;;;;;;;0.18;83.44;98956.18;218748;1293;22803;-75
2023/03/03 23:13:40;;;;;;;44.20;22.70;;;;;;;0.14;83.34;98960.60;218469;1293;205660;-76
2023/03/03 23:18:42;;;;;;;40.90;22.70;;;;;;;0.11;83.64;98958.30;218617;1290;22814;-75
2023/03/03 23:23:44;;;;;;;37.10;21.30;;;;;;;0.11;83.93;98950.52;218389;1296;22603;-74
2023/03/03 23:28:47;;;;;;;40.20;22.70;;;;;;;0.12;83.95;98941.27;218573;1293;22578;-74
2023/03/03 23:33:49;;;;;;;41.70;23.10;;;;;;;0.09;83.90;98937.98;218494;1297;25563;-74
2023/03/03 23:38:51;;;;;;;40.00;22.20;;;;;;;0.10;83.99;98939.52;218428;1294;24350;-75
2023/03/03 23:43:53;;;;;;;41.00;23.80;;;;;;;0.14;84.19;98937.93;218396;1292;25417;-74